Time;durP1;ratioP1;P1;durP2;ratioP2;P2;SDS_P1;SDS_P2;PMS_P1;PMS_P2;Temp;Humidity;BMP_temperature;BMP_pressure;BME280_temperature;BME280_humidity;BME280_pressure;Samples;Min_cycle;Max_cycle;Signal;HPM_P1;HPM_P2
2023/12/03 10:51:01;;;;;;;12.80;9.60;;;;;;;16.20;34.94;99798.16;5109574;28;20556;-84
2023/12/03 10:53:32;;;;;;;11.80;9.83;;;;;;;16.54;33.73;99813.53;5092067;28;40063;-84
2023/12/03 10:56:01;;;;;;;13.37;11.00;;;;;;;16.14;34.24;99792.28;5107999;28;43627;-84
2023/12/03 10:58:31;;;;;;;12.60;10.23;;;;;;;15.17;34.55;99806.97;5091098;28;42326;-84
2023/12/03 11:01:07;;;;;;;13.17;10.33;;;;;;;13.64;35.41;99809.56;5091622;28;42434;-84
2023/12/03 11:03:57;;;;;;;12.17;10.13;;;;;;;12.19;37.45;99758.50;5091153;28;41883;-84
2023/12/03 11:06:27;;;;;;;12.93;9.43;;;;;;;11.93;38.08;99769.69;5108725;28;41857;-84
2023/12/03 11:08:56;;;;;;;13.70;10.20;;;;;;;12.74;37.42;99774.03;5124816;27;44309;-84
2023/12/03 11:11:24;;;;;;;13.17;9.67;;;;;;;13.14;36.95;99773.47;5091077;28;41171;-84
2023/12/03 11:13:53;;;;;;;12.10;9.73;;;;;;;13.44;35.40;99780.63;5108538;28;39189;-85
2023/12/03 11:16:22;;;;;;;11.70;9.17;;;;;;;13.55;35.65;99773.72;5108539;28;41805;-84
2023/12/03 11:18:54;;;;;;;12.03;9.90;;;;;;;14.72;33.99;99776.16;5091265;28;42115;-84
2023/12/03 11:21:35;;;;;;;11.87;9.43;;;;;;;16.00;33.45;99765.69;5108420;28;43291;-85
2023/12/03 11:24:40;;;;;;;12.00;9.63;;;;;;;16.45;32.67;99782.06;5091224;28;40029;-85
2023/12/03 11:27:08;;;;;;;11.37;8.97;;;;;;;15.87;32.37;99786.19;5109227;28;42755;-85
2023/12/03 11:29:49;;;;;;;11.10;9.67;;;;;;;14.64;34.30;99782.00;5108153;28;43005;-85
2023/12/03 11:32:18;;;;;;;12.27;9.07;;;;;;;13.46;34.06;99779.59;5106186;28;42866;-84
2023/12/03 11:34:55;;;;;;;12.33;9.33;;;;;;;12.89;34.94;99781.13;5109242;28;39873;-85
2023/12/03 11:37:26;;;;;;;13.07;9.90;;;;;;;12.79;35.72;99782.59;5091275;28;40552;-84
2023/12/03 11:39:55;;;;;;;12.50;10.10;;;;;;;13.57;35.10;99770.97;5090436;28;43661;-84
2023/12/03 11:42:24;;;;;;;11.30;8.73;;;;;;;15.32;33.23;99789.94;5090868;28;41280;-83
2023/12/03 11:45:19;;;;;;;11.50;9.27;;;;;;;16.08;32.06;99784.69;5090807;28;39945;-84
2023/12/03 11:48:05;;;;;;;12.23;9.00;;;;;;;15.27;32.79;99781.38;5107927;28;42308;-84
2023/12/03 11:50:34;;;;;;;10.87;8.93;;;;;;;15.68;31.74;99791.13;5090586;28;41662;-84
2023/12/03 11:53:04;;;;;;;11.47;9.57;;;;;;;15.56;31.22;99746.56;5143158;27;43178;-83
2023/12/03 11:55:35;;;;;;;13.73;9.87;;;;;;;15.34;31.88;99771.13;5092336;28;39216;-83
2023/12/03 11:58:04;;;;;;;10.50;8.80;;;;;;;15.12;31.83;99793.06;5111089;28;42887;-84
2023/12/03 12:00:31;;;;;;;12.93;9.77;;;;;;;15.01;32.30;99763.59;5088064;28;43965;-84
2023/12/03 12:03:00;;;;;;;11.23;9.03;;;;;;;15.05;33.13;99781.97;5096692;28;42022;-84
2023/12/03 12:05:27;;;;;;;12.63;9.50;;;;;;;14.99;32.67;99765.50;5096847;28;40233;-84
2023/12/03 12:08:00;;;;;;;13.33;9.40;;;;;;;15.12;33.09;99776.22;5078122;28;43174;-84
2023/12/03 12:10:31;;;;;;;12.03;9.27;;;;;;;16.53;31.92;99769.88;5127116;27;42744;-84
2023/12/03 12:12:59;;;;;;;12.13;8.87;;;;;;;18.71;30.61;99761.13;5128244;27;41733;-84
2023/12/03 12:15:26;;;;;;;10.87;9.00;;;;;;;20.38;29.18;99772.88;5093487;28;40085;-84
2023/12/03 12:17:54;;;;;;;12.87;9.80;;;;;;;21.50;27.48;99761.72;5110680;28;42557;-85
2023/12/03 12:20:25;;;;;;;13.37;9.63;;;;;;;22.39;27.05;99760.38;5076464;28;43368;-85
2023/12/03 12:22:53;;;;;;;10.70;9.57;;;;;;;22.84;25.82;99776.66;5093725;28;42151;-85
2023/12/03 12:25:22;;;;;;;10.70;9.53;;;;;;;23.27;25.27;99773.22;5093048;28;41090;-85
2023/12/03 12:27:51;;;;;;;10.60;9.23;;;;;;;23.96;25.16;99780.59;5076596;28;40348;-84
2023/12/03 12:30:20;;;;;;;9.73;8.73;;;;;;;24.45;24.81;99775.50;5092904;28;43020;-86
2023/12/03 12:32:51;;;;;;;10.53;9.43;;;;;;;24.81;23.89;99764.44;5093575;28;43093;-86
2023/12/03 12:35:20;;;;;;;10.20;8.90;;;;;;;25.13;23.71;99764.56;5076496;28;38990;-84
2023/12/03 12:37:48;;;;;;;11.37;9.63;;;;;;;24.74;23.64;99761.53;5076479;28;42037;-85
2023/12/03 12:40:18;;;;;;;11.93;10.07;;;;;;;23.70;23.85;99749.97;5093014;28;43730;-85
2023/12/03 12:42:47;;;;;;;11.90;10.07;;;;;;;23.14;23.76;99756.53;5093366;28;42446;-87
2023/12/03 12:45:30;;;;;;;12.10;10.30;;;;;;;22.82;23.92;99762.47;5075842;28;39411;-85
2023/12/03 12:47:58;;;;;;;11.77;10.57;;;;;;;22.33;24.16;99750.19;5074093;28;40807;-85
2023/12/03 12:50:36;;;;;;;12.23;10.93;;;;;;;21.51;24.86;99744.56;5092203;28;42879;-85
2023/12/03 12:53:06;;;;;;;11.90;10.70;;;;;;;20.99;24.96;99756.59;5075849;28;41883;-83
2023/12/03 12:55:35;;;;;;;12.40;10.60;;;;;;;20.50;25.52;99749.41;5075715;28;38880;-85
2023/12/03 12:58:04;;;;;;;13.10;11.20;;;;;;;19.51;25.75;99740.09;5076128;28;43308;-85
2023/12/03 13:00:34;;;;;;;14.20;10.50;;;;;;;18.31;27.13;99726.75;5075645;28;42643;-85
2023/12/03 13:03:02;;;;;;;10.67;9.10;;;;;;;16.84;28.38;99731.06;5092982;28;42264;-85
2023/12/03 13:05:30;;;;;;;12.50;10.27;;;;;;;15.44;29.49;99729.53;5075663;28;39997;-85
2023/12/03 13:07:57;;;;;;;15.13;10.77;;;;;;;14.15;30.55;99716.75;5075918;28;43005;-85
2023/12/03 13:10:25;;;;;;;14.53;10.03;;;;;;;13.01;32.53;99682.03;5092354;28;42873;-84
2023/12/03 13:12:52;;;;;;;14.83;10.60;;;;;;;12.27;33.11;99711.13;5074627;28;42125;-84
2023/12/03 13:15:20;;;;;;;12.53;10.00;;;;;;;11.26;33.74;99701.56;5075494;28;39040;-84
2023/12/03 13:17:51;;;;;;;13.27;10.03;;;;;;;10.52;35.46;99698.22;5075697;28;41764;-84
2023/12/03 13:20:19;;;;;;;14.13;10.40;;;;;;;9.75;36.19;99671.88;5091848;28;43549;-84
2023/12/03 13:22:49;;;;;;;13.60;9.90;;;;;;;9.18;36.94;99680.63;5075733;28;41678;-84
2023/12/03 13:25:17;;;;;;;14.93;10.53;;;;;;;8.48;37.72;99641.38;5075444;28;39021;-85
2023/12/03 13:27:45;;;;;;;16.87;11.80;;;;;;;8.16;38.68;99669.88;5092126;28;41594;-83
2023/12/03 13:30:13;;;;;;;17.33;11.70;;;;;;;7.67;39.57;99646.34;5074786;28;42068;-83
2023/12/03 13:32:42;;;;;;;14.73;10.00;;;;;;;7.26;40.77;99630.31;5090584;28;42450;-84
2023/12/03 13:35:12;;;;;;;19.30;11.07;;;;;;;7.12;41.24;99651.88;5074305;28;39018;-82
2023/12/03 13:37:40;;;;;;;16.47;9.63;;;;;;;6.79;41.73;99632.88;5090175;28;41946;-83
2023/12/03 13:40:08;;;;;;;17.40;10.20;;;;;;;6.62;42.08;99643.13;5073640;28;43383;-83
2023/12/03 13:42:37;;;;;;;16.47;9.90;;;;;;;6.46;42.65;99647.16;5070677;28;40896;-83
2023/12/03 13:45:06;;;;;;;16.50;10.20;;;;;;;6.27;43.57;99644.28;5071143;28;39422;-82
2023/12/03 13:47:34;;;;;;;14.60;9.70;;;;;;;6.02;44.20;99636.31;5075090;28;42195;-83
2023/12/03 13:50:03;;;;;;;15.63;11.07;;;;;;;5.86;43.93;99639.44;5091005;28;43118;-83
2023/12/03 13:52:32;;;;;;;13.90;9.20;;;;;;;5.56;44.79;99630.72;5091072;28;41945;-84
2023/12/03 13:55:00;;;;;;;18.70;10.67;;;;;;;5.32;45.11;99627.88;5091299;28;40986;-84
2023/12/03 13:57:28;;;;;;;14.00;9.30;;;;;;;5.09;45.74;99630.31;5074090;28;42204;-84
2023/12/03 13:59:55;;;;;;;15.50;10.43;;;;;;;4.93;46.78;99618.53;5074367;28;43533;-83
2023/12/03 14:02:25;;;;;;;16.93;10.50;;;;;;;4.69;47.43;99615.69;5074348;28;43273;-84
2023/12/03 14:04:52;;;;;;;14.47;9.93;;;;;;;4.51;47.18;99620.53;5074664;28;40123;-83
2023/12/03 14:07:20;;;;;;;16.67;10.90;;;;;;;4.34;48.30;99607.84;5074467;28;40959;-84
2023/12/03 14:09:49;;;;;;;16.83;10.87;;;;;;;4.24;48.28;99608.97;5074382;28;45514;-84
2023/12/03 14:12:17;;;;;;;16.30;9.83;;;;;;;3.97;48.73;99592.16;5073980;28;41543;-84
2023/12/03 14:14:44;;;;;;;13.93;8.93;;;;;;;3.85;49.33;99588.06;5073607;28;39750;-83
2023/12/03 14:17:14;;;;;;;13.73;9.43;;;;;;;3.69;49.47;99576.25;5073774;28;41245;-86
2023/12/03 14:19:41;;;;;;;17.77;10.00;;;;;;;3.59;49.27;99572.94;5091159;28;43174;-84
2023/12/03 14:22:09;;;;;;;13.93;9.00;;;;;;;3.60;49.23;99590.41;5074372;28;41008;-84
2023/12/03 14:24:36;;;;;;;13.73;8.47;;;;;;;3.40;49.97;99568.19;5073022;28;40106;-84
2023/12/03 14:27:06;;;;;;;15.70;10.13;;;;;;;2.96;50.12;99508.97;5074191;28;41263;-83
2023/12/03 14:29:33;;;;;;;18.80;11.03;;;;;;;3.27;50.99;99582.44;5090932;28;43881;-83
2023/12/03 14:32:01;;;;;;;23.67;14.20;;;;;;;3.17;51.19;99593.09;5091300;28;42159;-84
2023/12/03 14:34:28;;;;;;;17.70;10.83;;;;;;;3.07;51.50;99582.84;5073342;28;41774;-84
2023/12/03 14:36:56;;;;;;;13.77;9.20;;;;;;;2.95;51.79;99585.72;5074180;28;42528;-84
2023/12/03 14:39:23;;;;;;;13.47;9.30;;;;;;;2.79;51.64;99585.16;5090268;28;42276;-84
2023/12/03 14:41:51;;;;;;;18.77;10.47;;;;;;;2.61;52.83;99572.41;5090856;28;42074;-85
